sensor_id;sensor_type;location;lat;lon;timestamp;P1;durP1;ratioP1;P2;durP2;ratioP2
51925;SDS011;37952;51.938;15.480;2023-05-29T00:00:23;3.30;;;2.40;;
51925;SDS011;37952;51.938;15.480;2023-05-29T00:03:46;2.40;;;2.20;;
51925;SDS011;37952;51.938;15.480;2023-05-29T00:06:50;3.10;;;2.20;;
51925;SDS011;37952;51.938;15.480;2023-05-29T00:09:53;2.20;;;2.10;;
51925;SDS011;37952;51.938;15.480;2023-05-29T00:12:56;2.20;;;2.10;;
51925;SDS011;37952;51.938;15.480;2023-05-29T00:16:00;3.00;;;1.50;;
51925;SDS011;37952;51.938;15.480;2023-05-29T00:19:03;2.10;;;1.90;;
51925;SDS011;37952;51.938;15.480;2023-05-29T00:22:06;2.40;;;2.10;;
51925;SDS011;37952;51.938;15.480;2023-05-29T00:25:09;2.00;;;1.80;;
51925;SDS011;37952;51.938;15.480;2023-05-29T00:28:12;2.00;;;1.70;;
51925;SDS011;37952;51.938;15.480;2023-05-29T00:31:15;2.20;;;2.00;;
51925;SDS011;37952;51.938;15.480;2023-05-29T00:34:17;2.20;;;2.10;;
51925;SDS011;37952;51.938;15.480;2023-05-29T00:37:20;2.60;;;2.30;;
51925;SDS011;37952;51.938;15.480;2023-05-29T00:40:27;3.10;;;2.00;;
51925;SDS011;37952;51.938;15.480;2023-05-29T00:43:29;3.20;;;1.90;;
51925;SDS011;37952;51.938;15.480;2023-05-29T00:46:32;4.30;;;2.30;;
51925;SDS011;37952;51.938;15.480;2023-05-29T00:49:36;4.60;;;2.30;;
51925;SDS011;37952;51.938;15.480;2023-05-29T00:52:44;2.50;;;2.30;;
51925;SDS011;37952;51.938;15.480;2023-05-29T00:55:48;6.50;;;1.90;;
51925;SDS011;37952;51.938;15.480;2023-05-29T00:58:51;5.40;;;2.10;;
51925;SDS011;37952;51.938;15.480;2023-05-29T01:01:54;1.80;;;1.70;;
51925;SDS011;37952;51.938;15.480;2023-05-29T01:04:58;3.80;;;2.80;;
51925;SDS011;37952;51.938;15.480;2023-05-29T01:08:02;2.60;;;2.50;;
51925;SDS011;37952;51.938;15.480;2023-05-29T01:11:21;3.10;;;2.90;;
51925;SDS011;37952;51.938;15.480;2023-05-29T01:18:16;3.90;;;2.60;;
51925;SDS011;37952;51.938;15.480;2023-05-29T01:24:58;5.20;;;2.70;;
51925;SDS011;37952;51.938;15.480;2023-05-29T01:28:14;5.20;;;3.30;;
51925;SDS011;37952;51.938;15.480;2023-05-29T01:31:20;3.40;;;3.10;;
51925;SDS011;37952;51.938;15.480;2023-05-29T01:34:26;3.50;;;3.20;;
51925;SDS011;37952;51.938;15.480;2023-05-29T01:37:28;3.50;;;3.10;;
51925;SDS011;37952;51.938;15.480;2023-05-29T01:40:31;6.00;;;3.50;;
51925;SDS011;37952;51.938;15.480;2023-05-29T01:43:34;4.80;;;3.30;;
51925;SDS011;37952;51.938;15.480;2023-05-29T01:46:38;4.10;;;3.30;;
51925;SDS011;37952;51.938;15.480;2023-05-29T01:49:45;5.20;;;3.30;;
51925;SDS011;37952;51.938;15.480;2023-05-29T01:52:51;3.60;;;3.40;;
51925;SDS011;37952;51.938;15.480;2023-05-29T01:55:54;4.60;;;3.30;;
51925;SDS011;37952;51.938;15.480;2023-05-29T01:58:57;3.40;;;2.70;;
51925;SDS011;37952;51.938;15.480;2023-05-29T02:02:06;3.20;;;3.00;;
51925;SDS011;37952;51.938;15.480;2023-05-29T02:05:12;4.00;;;3.10;;
51925;SDS011;37952;51.938;15.480;2023-05-29T02:08:15;3.70;;;2.60;;
51925;SDS011;37952;51.938;15.480;2023-05-29T02:11:18;3.60;;;3.10;;
51925;SDS011;37952;51.938;15.480;2023-05-29T02:14:21;3.60;;;2.70;;
51925;SDS011;37952;51.938;15.480;2023-05-29T02:17:23;3.30;;;3.00;;
51925;SDS011;37952;51.938;15.480;2023-05-29T02:20:27;2.70;;;2.50;;
51925;SDS011;37952;51.938;15.480;2023-05-29T02:23:30;9.00;;;2.90;;
51925;SDS011;37952;51.938;15.480;2023-05-29T02:26:33;3.20;;;2.80;;
51925;SDS011;37952;51.938;15.480;2023-05-29T02:29:39;3.40;;;3.10;;
51925;SDS011;37952;51.938;15.480;2023-05-29T02:32:42;6.20;;;2.90;;
51925;SDS011;37952;51.938;15.480;2023-05-29T02:35:44;3.10;;;2.90;;
51925;SDS011;37952;51.938;15.480;2023-05-29T02:38:47;3.20;;;3.00;;
51925;SDS011;37952;51.938;15.480;2023-05-29T02:41:50;2.90;;;2.60;;
51925;SDS011;37952;51.938;15.480;2023-05-29T02:44:53;3.00;;;2.70;;
51925;SDS011;37952;51.938;15.480;2023-05-29T02:47:57;2.80;;;2.60;;
51925;SDS011;37952;51.938;15.480;2023-05-29T02:50:59;5.00;;;2.70;;
51925;SDS011;37952;51.938;15.480;2023-05-29T02:54:02;5.50;;;3.00;;
51925;SDS011;37952;51.938;15.480;2023-05-29T02:57:05;3.20;;;2.80;;
51925;SDS011;37952;51.938;15.480;2023-05-29T03:00:08;2.90;;;2.70;;
51925;SDS011;37952;51.938;15.480;2023-05-29T03:03:13;4.50;;;2.70;;
51925;SDS011;37952;51.938;15.480;2023-05-29T03:06:16;3.80;;;2.80;;
51925;SDS011;37952;51.938;15.480;2023-05-29T03:09:20;3.30;;;2.90;;
51925;SDS011;37952;51.938;15.480;2023-05-29T03:12:23;3.30;;;3.00;;
51925;SDS011;37952;51.938;15.480;2023-05-29T03:15:26;4.20;;;2.90;;
51925;SDS011;37952;51.938;15.480;2023-05-29T03:18:28;2.90;;;2.70;;
51925;SDS011;37952;51.938;15.480;2023-05-29T03:21:31;3.60;;;3.10;;
51925;SDS011;37952;51.938;15.480;2023-05-29T03:24:34;3.00;;;2.80;;
51925;SDS011;37952;51.938;15.480;2023-05-29T03:27:38;3.70;;;2.90;;
51925;SDS011;37952;51.938;15.480;2023-05-29T03:30:40;3.70;;;2.70;;
51925;SDS011;37952;51.938;15.480;2023-05-29T03:33:43;4.30;;;3.30;;
51925;SDS011;37952;51.938;15.480;2023-05-29T03:36:47;5.00;;;3.10;;
51925;SDS011;37952;51.938;15.480;2023-05-29T03:39:50;4.40;;;3.20;;
51925;SDS011;37952;51.938;15.480;2023-05-29T03:42:53;4.70;;;3.00;;
51925;SDS011;37952;51.938;15.480;2023-05-29T03:45:56;7.10;;;3.10;;
51925;SDS011;37952;51.938;15.480;2023-05-29T03:48:59;3.90;;;3.30;;
51925;SDS011;37952;51.938;15.480;2023-05-29T03:52:01;3.20;;;2.90;;
51925;SDS011;37952;51.938;15.480;2023-05-29T03:55:08;6.10;;;3.10;;
51925;SDS011;37952;51.938;15.480;2023-05-29T03:58:15;3.50;;;3.20;;
51925;SDS011;37952;51.938;15.480;2023-05-29T04:01:18;3.20;;;2.90;;
51925;SDS011;37952;51.938;15.480;2023-05-29T04:04:21;14.70;;;3.20;;
51925;SDS011;37952;51.938;15.480;2023-05-29T04:07:24;3.00;;;2.80;;
51925;SDS011;37952;51.938;15.480;2023-05-29T04:10:28;3.40;;;3.10;;
51925;SDS011;37952;51.938;15.480;2023-05-29T04:13:31;3.10;;;2.80;;
51925;SDS011;37952;51.938;15.480;2023-05-29T04:16:33;4.80;;;3.70;;
51925;SDS011;37952;51.938;15.480;2023-05-29T04:19:36;4.00;;;3.40;;
51925;SDS011;37952;51.938;15.480;2023-05-29T04:22:39;4.00;;;3.40;;
51925;SDS011;37952;51.938;15.480;2023-05-29T04:25:42;3.70;;;3.40;;
51925;SDS011;37952;51.938;15.480;2023-05-29T04:28:46;3.70;;;3.40;;
51925;SDS011;37952;51.938;15.480;2023-05-29T04:31:49;4.00;;;3.20;;
51925;SDS011;37952;51.938;15.480;2023-05-29T04:34:53;3.40;;;3.00;;
51925;SDS011;37952;51.938;15.480;2023-05-29T04:37:56;5.10;;;3.10;;
51925;SDS011;37952;51.938;15.480;2023-05-29T04:41:00;3.70;;;3.30;;
51925;SDS011;37952;51.938;15.480;2023-05-29T04:44:03;5.50;;;2.90;;
51925;SDS011;37952;51.938;15.480;2023-05-29T04:47:06;5.20;;;3.00;;
51925;SDS011;37952;51.938;15.480;2023-05-29T04:50:10;4.70;;;3.20;;
51925;SDS011;37952;51.938;15.480;2023-05-29T04:53:14;9.60;;;3.60;;
51925;SDS011;37952;51.938;15.480;2023-05-29T04:56:18;4.20;;;3.20;;
51925;SDS011;37952;51.938;15.480;2023-05-29T04:59:21;6.30;;;3.40;;
51925;SDS011;37952;51.938;15.480;2023-05-29T05:02:23;7.50;;;3.40;;
51925;SDS011;37952;51.938;15.480;2023-05-29T05:05:26;8.70;;;3.40;;
51925;SDS011;37952;51.938;15.480;2023-05-29T05:08:29;4.60;;;3.30;;
51925;SDS011;37952;51.938;15.480;2023-05-29T05:11:32;3.80;;;3.00;;
51925;SDS011;37952;51.938;15.480;2023-05-29T05:14:35;5.70;;;3.10;;
51925;SDS011;37952;51.938;15.480;2023-05-29T05:17:37;5.20;;;3.10;;
51925;SDS011;37952;51.938;15.480;2023-05-29T05:20:40;4.90;;;3.10;;
51925;SDS011;37952;51.938;15.480;2023-05-29T05:23:45;3.90;;;3.10;;
51925;SDS011;37952;51.938;15.480;2023-05-29T05:27:00;6.90;;;3.30;;
51925;SDS011;37952;51.938;15.480;2023-05-29T05:30:03;8.60;;;3.40;;
51925;SDS011;37952;51.938;15.480;2023-05-29T05:33:06;3.30;;;3.00;;
51925;SDS011;37952;51.938;15.480;2023-05-29T05:36:10;4.70;;;2.80;;
51925;SDS011;37952;51.938;15.480;2023-05-29T05:39:13;3.30;;;3.00;;
51925;SDS011;37952;51.938;15.480;2023-05-29T05:42:16;7.70;;;3.10;;
51925;SDS011;37952;51.938;15.480;2023-05-29T05:45:25;4.10;;;3.00;;
51925;SDS011;37952;51.938;15.480;2023-05-29T05:48:28;8.70;;;3.10;;
51925;SDS011;37952;51.938;15.480;2023-05-29T05:51:31;5.50;;;3.40;;
51925;SDS011;37952;51.938;15.480;2023-05-29T05:54:34;14.60;;;3.20;;
51925;SDS011;37952;51.938;15.480;2023-05-29T05:57:36;5.20;;;3.10;;
51925;SDS011;37952;51.938;15.480;2023-05-29T06:00:39;7.40;;;3.50;;
51925;SDS011;37952;51.938;15.480;2023-05-29T06:03:42;7.20;;;3.30;;
51925;SDS011;37952;51.938;15.480;2023-05-29T06:06:45;3.50;;;3.10;;
51925;SDS011;37952;51.938;15.480;2023-05-29T06:09:48;5.60;;;3.40;;
51925;SDS011;37952;51.938;15.480;2023-05-29T06:12:51;3.50;;;3.20;;
51925;SDS011;37952;51.938;15.480;2023-05-29T06:15:55;7.70;;;3.20;;
51925;SDS011;37952;51.938;15.480;2023-05-29T06:18:58;3.40;;;3.00;;
51925;SDS011;37952;51.938;15.480;2023-05-29T06:22:01;3.80;;;2.80;;
51925;SDS011;37952;51.938;15.480;2023-05-29T06:25:04;4.80;;;3.20;;
51925;SDS011;37952;51.938;15.480;2023-05-29T06:28:10;4.00;;;3.30;;
51925;SDS011;37952;51.938;15.480;2023-05-29T06:31:12;4.90;;;3.70;;
51925;SDS011;37952;51.938;15.480;2023-05-29T06:34:15;14.60;;;3.50;;
51925;SDS011;37952;51.938;15.480;2023-05-29T06:37:18;6.20;;;3.20;;
51925;SDS011;37952;51.938;15.480;2023-05-29T06:40:21;3.10;;;2.60;;
51925;SDS011;37952;51.938;15.480;2023-05-29T06:43:24;4.70;;;3.30;;
51925;SDS011;37952;51.938;15.480;2023-05-29T06:46:26;3.40;;;2.80;;
51925;SDS011;37952;51.938;15.480;2023-05-29T06:49:29;4.80;;;3.20;;
51925;SDS011;37952;51.938;15.480;2023-05-29T06:52:32;5.20;;;2.90;;
51925;SDS011;37952;51.938;15.480;2023-05-29T06:55:35;6.10;;;3.20;;
51925;SDS011;37952;51.938;15.480;2023-05-29T06:58:38;4.30;;;2.70;;
51925;SDS011;37952;51.938;15.480;2023-05-29T07:01:42;6.70;;;2.90;;
51925;SDS011;37952;51.938;15.480;2023-05-29T07:04:45;7.00;;;3.10;;
51925;SDS011;37952;51.938;15.480;2023-05-29T07:07:48;3.30;;;3.00;;
51925;SDS011;37952;51.938;15.480;2023-05-29T07:10:51;3.90;;;3.30;;
51925;SDS011;37952;51.938;15.480;2023-05-29T07:13:54;5.70;;;3.20;;
51925;SDS011;37952;51.938;15.480;2023-05-29T07:16:57;4.40;;;2.90;;
51925;SDS011;37952;51.938;15.480;2023-05-29T07:20:00;4.40;;;2.90;;
51925;SDS011;37952;51.938;15.480;2023-05-29T07:23:03;6.50;;;2.90;;
51925;SDS011;37952;51.938;15.480;2023-05-29T07:26:07;5.90;;;3.20;;
51925;SDS011;37952;51.938;15.480;2023-05-29T07:29:09;5.60;;;2.70;;
51925;SDS011;37952;51.938;15.480;2023-05-29T07:32:12;3.60;;;2.50;;
51925;SDS011;37952;51.938;15.480;2023-05-29T07:35:15;6.40;;;3.10;;
51925;SDS011;37952;51.938;15.480;2023-05-29T07:38:18;5.90;;;3.10;;
51925;SDS011;37952;51.938;15.480;2023-05-29T07:41:21;5.70;;;3.20;;
51925;SDS011;37952;51.938;15.480;2023-05-29T07:44:24;5.20;;;2.90;;
51925;SDS011;37952;51.938;15.480;2023-05-29T07:47:27;4.80;;;2.70;;
51925;SDS011;37952;51.938;15.480;2023-05-29T07:50:29;4.60;;;2.70;;
51925;SDS011;37952;51.938;15.480;2023-05-29T07:53:32;2.90;;;2.60;;
51925;SDS011;37952;51.938;15.480;2023-05-29T07:56:36;3.10;;;2.80;;
51925;SDS011;37952;51.938;15.480;2023-05-29T07:59:42;3.80;;;2.20;;
51925;SDS011;37952;51.938;15.480;2023-05-29T08:02:46;3.00;;;2.70;;
51925;SDS011;37952;51.938;15.480;2023-05-29T08:05:49;3.70;;;2.30;;
51925;SDS011;37952;51.938;15.480;2023-05-29T08:08:52;4.20;;;2.50;;
51925;SDS011;37952;51.938;15.480;2023-05-29T08:11:54;2.40;;;2.20;;
51925;SDS011;37952;51.938;15.480;2023-05-29T08:14:58;7.30;;;2.60;;
51925;SDS011;37952;51.938;15.480;2023-05-29T08:18:01;3.10;;;2.00;;
51925;SDS011;37952;51.938;15.480;2023-05-29T08:21:04;2.10;;;1.90;;
51925;SDS011;37952;51.938;15.480;2023-05-29T08:24:08;4.00;;;1.90;;
51925;SDS011;37952;51.938;15.480;2023-05-29T08:27:11;3.80;;;2.30;;
51925;SDS011;37952;51.938;15.480;2023-05-29T08:30:14;2.40;;;2.20;;
51925;SDS011;37952;51.938;15.480;2023-05-29T08:33:17;4.10;;;2.60;;
51925;SDS011;37952;51.938;15.480;2023-05-29T08:36:20;11.70;;;2.10;;
51925;SDS011;37952;51.938;15.480;2023-05-29T08:39:26;2.60;;;2.40;;
51925;SDS011;37952;51.938;15.480;2023-05-29T08:42:29;4.30;;;2.30;;
51925;SDS011;37952;51.938;15.480;2023-05-29T08:45:37;3.30;;;1.90;;
51925;SDS011;37952;51.938;15.480;2023-05-29T08:48:47;2.60;;;2.00;;
51925;SDS011;37952;51.938;15.480;2023-05-29T08:51:57;3.60;;;2.50;;
51925;SDS011;37952;51.938;15.480;2023-05-29T08:55:07;2.40;;;1.80;;
51925;SDS011;37952;51.938;15.480;2023-05-29T08:58:11;2.60;;;2.30;;
51925;SDS011;37952;51.938;15.480;2023-05-29T09:01:14;2.00;;;1.80;;
51925;SDS011;37952;51.938;15.480;2023-05-29T09:04:17;3.80;;;2.20;;
51925;SDS011;37952;51.938;15.480;2023-05-29T09:07:20;3.00;;;2.30;;
51925;SDS011;37952;51.938;15.480;2023-05-29T09:10:24;2.60;;;2.20;;
51925;SDS011;37952;51.938;15.480;2023-05-29T09:13:28;9.30;;;2.30;;
51925;SDS011;37952;51.938;15.480;2023-05-29T09:16:31;3.60;;;2.20;;
51925;SDS011;37952;51.938;15.480;2023-05-29T09:19:35;2.60;;;1.90;;
51925;SDS011;37952;51.938;15.480;2023-05-29T09:22:38;3.60;;;2.10;;
51925;SDS011;37952;51.938;15.480;2023-05-29T09:25:45;2.10;;;1.90;;
51925;SDS011;37952;51.938;15.480;2023-05-29T09:28:55;2.00;;;1.80;;
51925;SDS011;37952;51.938;15.480;2023-05-29T09:31:59;1.90;;;1.80;;
51925;SDS011;37952;51.938;15.480;2023-05-29T09:35:06;2.00;;;1.90;;
51925;SDS011;37952;51.938;15.480;2023-05-29T09:38:10;2.00;;;1.80;;
51925;SDS011;37952;51.938;15.480;2023-05-29T09:41:30;4.30;;;1.90;;
51925;SDS011;37952;51.938;15.480;2023-05-29T09:44:34;4.00;;;2.20;;
51925;SDS011;37952;51.938;15.480;2023-05-29T09:47:37;2.90;;;2.10;;
51925;SDS011;37952;51.938;15.480;2023-05-29T09:50:41;2.70;;;1.80;;
51925;SDS011;37952;51.938;15.480;2023-05-29T09:53:50;6.60;;;1.90;;
51925;SDS011;37952;51.938;15.480;2023-05-29T09:56:54;3.00;;;2.00;;
51925;SDS011;37952;51.938;15.480;2023-05-29T10:00:03;12.70;;;2.00;;
51925;SDS011;37952;51.938;15.480;2023-05-29T10:06:22;4.80;;;2.10;;
51925;SDS011;37952;51.938;15.480;2023-05-29T10:09:25;2.10;;;1.90;;
51925;SDS011;37952;51.938;15.480;2023-05-29T10:12:30;2.90;;;1.90;;
51925;SDS011;37952;51.938;15.480;2023-05-29T10:15:35;2.10;;;1.90;;
51925;SDS011;37952;51.938;15.480;2023-05-29T10:18:39;2.00;;;1.80;;
51925;SDS011;37952;51.938;15.480;2023-05-29T10:21:47;2.30;;;2.10;;
51925;SDS011;37952;51.938;15.480;2023-05-29T10:24:51;10.40;;;1.90;;
51925;SDS011;37952;51.938;15.480;2023-05-29T10:27:55;1.90;;;1.80;;
51925;SDS011;37952;51.938;15.480;2023-05-29T10:31:07;1.90;;;1.70;;
51925;SDS011;37952;51.938;15.480;2023-05-29T10:40:55;3.10;;;2.70;;
51925;SDS011;37952;51.938;15.480;2023-05-29T10:44:00;5.70;;;2.40;;
51925;SDS011;37952;51.938;15.480;2023-05-29T10:47:04;2.90;;;2.40;;
51925;SDS011;37952;51.938;15.480;2023-05-29T10:50:08;2.50;;;2.10;;
51925;SDS011;37952;51.938;15.480;2023-05-29T10:53:15;3.10;;;2.10;;
51925;SDS011;37952;51.938;15.480;2023-05-29T10:56:30;2.30;;;1.60;;
51925;SDS011;37952;51.938;15.480;2023-05-29T10:59:35;3.50;;;1.80;;
51925;SDS011;37952;51.938;15.480;2023-05-29T11:02:39;2.60;;;2.40;;
51925;SDS011;37952;51.938;15.480;2023-05-29T11:09:30;2.90;;;1.80;;
51925;SDS011;37952;51.938;15.480;2023-05-29T11:12:55;2.60;;;1.60;;
51925;SDS011;37952;51.938;15.480;2023-05-29T11:16:19;2.10;;;1.80;;
51925;SDS011;37952;51.938;15.480;2023-05-29T11:19:38;7.80;;;2.20;;
51925;SDS011;37952;51.938;15.480;2023-05-29T11:22:48;2.50;;;2.30;;
51925;SDS011;37952;51.938;15.480;2023-05-29T11:25:55;3.10;;;2.00;;
51925;SDS011;37952;51.938;15.480;2023-05-29T11:28:59;2.70;;;2.40;;
51925;SDS011;37952;51.938;15.480;2023-05-29T11:32:04;2.20;;;2.00;;
51925;SDS011;37952;51.938;15.480;2023-05-29T11:35:10;1.90;;;1.80;;
51925;SDS011;37952;51.938;15.480;2023-05-29T11:38:15;2.30;;;1.90;;
51925;SDS011;37952;51.938;15.480;2023-05-29T11:41:18;4.60;;;1.90;;
51925;SDS011;37952;51.938;15.480;2023-05-29T11:44:23;1.80;;;1.70;;
51925;SDS011;37952;51.938;15.480;2023-05-29T11:47:27;1.60;;;1.50;;
51925;SDS011;37952;51.938;15.480;2023-05-29T11:50:31;4.10;;;1.50;;
51925;SDS011;37952;51.938;15.480;2023-05-29T11:53:34;2.00;;;1.90;;
51925;SDS011;37952;51.938;15.480;2023-05-29T11:56:37;2.00;;;1.80;;
51925;SDS011;37952;51.938;15.480;2023-05-29T11:59:43;1.90;;;1.70;;
51925;SDS011;37952;51.938;15.480;2023-05-29T12:02:46;1.90;;;1.80;;
51925;SDS011;37952;51.938;15.480;2023-05-29T12:05:50;4.20;;;2.20;;
51925;SDS011;37952;51.938;15.480;2023-05-29T12:08:56;7.20;;;1.90;;
51925;SDS011;37952;51.938;15.480;2023-05-29T12:12:02;1.90;;;1.80;;
51925;SDS011;37952;51.938;15.480;2023-05-29T12:15:06;2.10;;;2.00;;
51925;SDS011;37952;51.938;15.480;2023-05-29T12:18:10;5.80;;;2.30;;
51925;SDS011;37952;51.938;15.480;2023-05-29T12:21:14;2.10;;;1.90;;
51925;SDS011;37952;51.938;15.480;2023-05-29T12:24:18;2.00;;;1.80;;
51925;SDS011;37952;51.938;15.480;2023-05-29T12:27:26;2.90;;;1.70;;
51925;SDS011;37952;51.938;15.480;2023-05-29T12:30:29;1.80;;;1.70;;
51925;SDS011;37952;51.938;15.480;2023-05-29T12:33:35;6.90;;;2.00;;
51925;SDS011;37952;51.938;15.480;2023-05-29T12:36:41;3.50;;;2.30;;
51925;SDS011;37952;51.938;15.480;2023-05-29T12:39:45;1.80;;;1.70;;
51925;SDS011;37952;51.938;15.480;2023-05-29T12:43:11;1.90;;;1.80;;
51925;SDS011;37952;51.938;15.480;2023-05-29T12:46:14;2.10;;;2.00;;
51925;SDS011;37952;51.938;15.480;2023-05-29T12:49:17;3.00;;;1.80;;
51925;SDS011;37952;51.938;15.480;2023-05-29T12:52:26;2.10;;;2.00;;
51925;SDS011;37952;51.938;15.480;2023-05-29T12:55:29;10.30;;;3.40;;
51925;SDS011;37952;51.938;15.480;2023-05-29T12:58:36;3.60;;;2.50;;
51925;SDS011;37952;51.938;15.480;2023-05-29T13:01:38;2.00;;;1.90;;
51925;SDS011;37952;51.938;15.480;2023-05-29T13:04:41;2.90;;;2.20;;
51925;SDS011;37952;51.938;15.480;2023-05-29T13:07:45;2.80;;;1.90;;
51925;SDS011;37952;51.938;15.480;2023-05-29T13:10:49;8.10;;;4.60;;
51925;SDS011;37952;51.938;15.480;2023-05-29T13:13:52;3.80;;;2.30;;
51925;SDS011;37952;51.938;15.480;2023-05-29T13:16:55;5.80;;;3.30;;
51925;SDS011;37952;51.938;15.480;2023-05-29T13:19:58;7.30;;;3.30;;
51925;SDS011;37952;51.938;15.480;2023-05-29T13:23:01;3.90;;;2.10;;
51925;SDS011;37952;51.938;15.480;2023-05-29T13:26:04;2.60;;;2.00;;
51925;SDS011;37952;51.938;15.480;2023-05-29T13:29:07;2.50;;;2.20;;
51925;SDS011;37952;51.938;15.480;2023-05-29T13:32:10;1.60;;;1.50;;
51925;SDS011;37952;51.938;15.480;2023-05-29T13:35:13;2.60;;;2.00;;
51925;SDS011;37952;51.938;15.480;2023-05-29T13:38:16;2.50;;;2.10;;
51925;SDS011;37952;51.938;15.480;2023-05-29T13:41:19;2.20;;;2.00;;
51925;SDS011;37952;51.938;15.480;2023-05-29T13:44:23;2.40;;;2.20;;
51925;SDS011;37952;51.938;15.480;2023-05-29T13:47:25;2.80;;;1.80;;
51925;SDS011;37952;51.938;15.480;2023-05-29T13:50:34;1.90;;;1.80;;
51925;SDS011;37952;51.938;15.480;2023-05-29T13:53:37;4.60;;;1.90;;
51925;SDS011;37952;51.938;15.480;2023-05-29T13:56:40;3.50;;;2.10;;
51925;SDS011;37952;51.938;15.480;2023-05-29T13:59:43;3.30;;;2.30;;
51925;SDS011;37952;51.938;15.480;2023-05-29T14:02:46;2.10;;;1.90;;
51925;SDS011;37952;51.938;15.480;2023-05-29T14:05:49;2.20;;;1.90;;
51925;SDS011;37952;51.938;15.480;2023-05-29T14:08:53;1.70;;;1.60;;
51925;SDS011;37952;51.938;15.480;2023-05-29T14:11:57;6.40;;;2.10;;
51925;SDS011;37952;51.938;15.480;2023-05-29T14:15:01;4.00;;;1.90;;
51925;SDS011;37952;51.938;15.480;2023-05-29T14:18:04;1.90;;;1.70;;
51925;SDS011;37952;51.938;15.480;2023-05-29T14:21:09;1.90;;;1.60;;
51925;SDS011;37952;51.938;15.480;2023-05-29T14:24:13;2.10;;;2.00;;
51925;SDS011;37952;51.938;15.480;2023-05-29T14:27:18;1.90;;;1.80;;
51925;SDS011;37952;51.938;15.480;2023-05-29T14:30:24;1.80;;;1.70;;
51925;SDS011;37952;51.938;15.480;2023-05-29T14:33:26;2.20;;;2.00;;
51925;SDS011;37952;51.938;15.480;2023-05-29T14:36:29;4.10;;;1.60;;
51925;SDS011;37952;51.938;15.480;2023-05-29T14:39:32;1.70;;;1.60;;
51925;SDS011;37952;51.938;15.480;2023-05-29T14:42:35;2.50;;;1.50;;
51925;SDS011;37952;51.938;15.480;2023-05-29T14:45:38;2.00;;;1.80;;
51925;SDS011;37952;51.938;15.480;2023-05-29T14:48:41;2.00;;;1.90;;
51925;SDS011;37952;51.938;15.480;2023-05-29T14:51:44;1.50;;;1.40;;
51925;SDS011;37952;51.938;15.480;2023-05-29T14:54:47;1.70;;;1.60;;
51925;SDS011;37952;51.938;15.480;2023-05-29T14:57:50;4.00;;;1.80;;
51925;SDS011;37952;51.938;15.480;2023-05-29T15:00:53;2.30;;;1.80;;
51925;SDS011;37952;51.938;15.480;2023-05-29T15:03:56;1.60;;;1.50;;
51925;SDS011;37952;51.938;15.480;2023-05-29T15:06:59;1.50;;;1.40;;
51925;SDS011;37952;51.938;15.480;2023-05-29T15:10:08;1.80;;;1.40;;
51925;SDS011;37952;51.938;15.480;2023-05-29T15:13:11;1.60;;;1.50;;
51925;SDS011;37952;51.938;15.480;2023-05-29T15:16:14;1.90;;;1.60;;
51925;SDS011;37952;51.938;15.480;2023-05-29T15:19:18;1.60;;;1.10;;
51925;SDS011;37952;51.938;15.480;2023-05-29T15:22:20;2.60;;;1.40;;
51925;SDS011;37952;51.938;15.480;2023-05-29T15:25:23;3.70;;;1.40;;
51925;SDS011;37952;51.938;15.480;2023-05-29T15:28:27;1.60;;;1.50;;
51925;SDS011;37952;51.938;15.480;2023-05-29T15:31:29;3.00;;;1.40;;
51925;SDS011;37952;51.938;15.480;2023-05-29T15:34:32;4.10;;;1.50;;
51925;SDS011;37952;51.938;15.480;2023-05-29T15:37:37;5.40;;;1.20;;
51925;SDS011;37952;51.938;15.480;2023-05-29T15:40:41;1.60;;;1.50;;
51925;SDS011;37952;51.938;15.480;2023-05-29T15:43:44;3.90;;;1.60;;
51925;SDS011;37952;51.938;15.480;2023-05-29T15:46:47;1.40;;;1.30;;
51925;SDS011;37952;51.938;15.480;2023-05-29T15:49:50;2.20;;;1.30;;
51925;SDS011;37952;51.938;15.480;2023-05-29T15:52:54;1.70;;;1.50;;
51925;SDS011;37952;51.938;15.480;2023-05-29T15:55:58;1.30;;;1.20;;
51925;SDS011;37952;51.938;15.480;2023-05-29T15:59:01;2.80;;;1.30;;
51925;SDS011;37952;51.938;15.480;2023-05-29T16:02:05;1.60;;;1.50;;
51925;SDS011;37952;51.938;15.480;2023-05-29T16:05:08;2.70;;;1.30;;
51925;SDS011;37952;51.938;15.480;2023-05-29T16:08:12;1.60;;;1.50;;
51925;SDS011;37952;51.938;15.480;2023-05-29T16:11:15;1.40;;;1.30;;
51925;SDS011;37952;51.938;15.480;2023-05-29T16:14:17;2.50;;;1.70;;
51925;SDS011;37952;51.938;15.480;2023-05-29T16:17:20;1.30;;;1.20;;
51925;SDS011;37952;51.938;15.480;2023-05-29T16:20:23;3.00;;;1.30;;
51925;SDS011;37952;51.938;15.480;2023-05-29T16:23:27;1.20;;;1.10;;
51925;SDS011;37952;51.938;15.480;2023-05-29T16:26:30;1.60;;;1.50;;
51925;SDS011;37952;51.938;15.480;2023-05-29T16:29:36;1.30;;;1.20;;
51925;SDS011;37952;51.938;15.480;2023-05-29T16:32:40;1.20;;;1.10;;
51925;SDS011;37952;51.938;15.480;2023-05-29T16:35:43;1.80;;;1.30;;
51925;SDS011;37952;51.938;15.480;2023-05-29T16:38:46;1.80;;;1.70;;
51925;SDS011;37952;51.938;15.480;2023-05-29T16:41:49;2.00;;;1.60;;
51925;SDS011;37952;51.938;15.480;2023-05-29T16:44:52;1.60;;;1.50;;
51925;SDS011;37952;51.938;15.480;2023-05-29T16:47:55;1.30;;;1.20;;
51925;SDS011;37952;51.938;15.480;2023-05-29T16:50:58;1.60;;;1.50;;
51925;SDS011;37952;51.938;15.480;2023-05-29T16:54:01;1.20;;;1.10;;
51925;SDS011;37952;51.938;15.480;2023-05-29T16:57:07;1.50;;;1.10;;
51925;SDS011;37952;51.938;15.480;2023-05-29T17:00:11;1.60;;;1.40;;
51925;SDS011;37952;51.938;15.480;2023-05-29T17:03:15;1.70;;;1.50;;
51925;SDS011;37952;51.938;15.480;2023-05-29T17:06:18;3.10;;;1.60;;
51925;SDS011;37952;51.938;15.480;2023-05-29T17:09:21;4.00;;;1.60;;
51925;SDS011;37952;51.938;15.480;2023-05-29T17:12:26;1.20;;;1.10;;
51925;SDS011;37952;51.938;15.480;2023-05-29T17:15:29;1.70;;;1.40;;
51925;SDS011;37952;51.938;15.480;2023-05-29T17:18:32;1.50;;;1.40;;
51925;SDS011;37952;51.938;15.480;2023-05-29T17:21:35;3.80;;;1.30;;
51925;SDS011;37952;51.938;15.480;2023-05-29T17:24:38;1.50;;;1.40;;
51925;SDS011;37952;51.938;15.480;2023-05-29T17:27:41;1.50;;;1.20;;
51925;SDS011;37952;51.938;15.480;2023-05-29T17:30:44;1.30;;;1.20;;
51925;SDS011;37952;51.938;15.480;2023-05-29T17:33:47;1.90;;;1.20;;
51925;SDS011;37952;51.938;15.480;2023-05-29T17:36:50;3.70;;;1.50;;
51925;SDS011;37952;51.938;15.480;2023-05-29T17:39:53;1.60;;;1.50;;
51925;SDS011;37952;51.938;15.480;2023-05-29T17:42:56;2.20;;;1.40;;
51925;SDS011;37952;51.938;15.480;2023-05-29T17:45:59;5.10;;;1.60;;
51925;SDS011;37952;51.938;15.480;2023-05-29T17:49:03;3.30;;;1.60;;
51925;SDS011;37952;51.938;15.480;2023-05-29T17:52:06;1.50;;;1.30;;
51925;SDS011;37952;51.938;15.480;2023-05-29T17:55:11;1.20;;;1.00;;
51925;SDS011;37952;51.938;15.480;2023-05-29T17:58:15;1.50;;;1.40;;
51925;SDS011;37952;51.938;15.480;2023-05-29T18:01:18;1.20;;;1.10;;
51925;SDS011;37952;51.938;15.480;2023-05-29T18:04:21;1.50;;;1.40;;
51925;SDS011;37952;51.938;15.480;2023-05-29T18:07:24;1.20;;;1.10;;
51925;SDS011;37952;51.938;15.480;2023-05-29T18:10:27;1.90;;;1.40;;
51925;SDS011;37952;51.938;15.480;2023-05-29T18:13:36;1.30;;;1.20;;
51925;SDS011;37952;51.938;15.480;2023-05-29T18:16:39;1.80;;;1.60;;
51925;SDS011;37952;51.938;15.480;2023-05-29T18:19:43;1.40;;;1.30;;
51925;SDS011;37952;51.938;15.480;2023-05-29T18:22:46;2.00;;;1.30;;
51925;SDS011;37952;51.938;15.480;2023-05-29T18:25:49;2.90;;;1.60;;
51925;SDS011;37952;51.938;15.480;2023-05-29T18:28:52;3.10;;;1.20;;
51925;SDS011;37952;51.938;15.480;2023-05-29T18:31:57;1.50;;;1.20;;